Main page
METAR-TAF:

METAR-TAF

Airports :

Bahawalpur Airport

Bahawalpur, Pakistan

latitude: 29-20-53N, longitude: 71-43-04E, elevation: 119 m

METAR: missing

Time: 08:39 (03:39 UTC)

Forecast

The report was made 5 hours and 54 minutes ago, at 21:45 UTC
Forecast valid from 23 at 00 UTC to 23 at 18 UTC
Wind 10 kt from the Southwest
Visibility: 4000 m
Scattered clouds at a height of 12000 ft
smoke
Probability 30% :
Temporary
from 23 at 01 UTC to 23 at 05 UTC
Wind 5 kt from the Northeast
Visibility: 2000 m
Few clouds at a height of 12000 ft
smoke

TAF: OPBW 222145Z 2300/2318 23010KT 4000 FU SCT120 TN26/0901Z TX34/2310Z PROB30 TEMPO 2301/2305 05005KT 2000 FU FEW120

Weather observations and forecasts of more than 4000 airports (METAR and TAF reports).

The available stations are represented by yellow and red dots on the map.

Hover mouse over dot to see the name of the station.

Then click to see weather observations and forecasts.

To change the map : click on the green buttons with a black cross to zoom in, on the green button with a dash to zoom out, or on the green arrows for adjacent maps.


METAR-TAF: